Aransas Pass, Texas
Current Conditions -  °F | °C
As of 9:15 PM on Monday 26 Jan 2015 (Local Time) from KTFP Reporting Station
Clear Clear  
Wind Chill: 13°   Ceiling: Unl
Heat Index: 13°   Visibility: 10mi
Dew Point:   Wind: 7mph
Humidity: 74%   Direction: 210°SSW
Pressure: 30.22"   Gusts: NA
Location:  27.9°N, 97.15°W
Report Text: KTFP 270315Z AUTO 21006KT 10SM CLR 13/08 A3022 RMK AO2 T01300084
Loading
Personal Weather Stations






























Interactive Weather Map New forecast layout! Learn more

10-Day Weather Forecast

Advertisements
Track Severe Weather on mobile